Minneapolis, Minnesota
Traffic Map
Current Weather Conditions
Minneapolis, Minnesota
Broken Clouds
Broken Clouds
38°
Feels Like: 38°
Wind Chill: 38° Ceiling: 15000
Heat Index: 38° Visibility: 10mi
Dew Point: 28° Wind: 0mph
Humidity: 68% Direction: ° ()
Pressure: 30.44in Gusts: 0mph
Raw Report DataKMSP 211153Z 00000KT 10SM BKN150 03/M02 A3044 RMK AO2 SLP314 4/001 T00331022 10056 20022 53007
Traffic Incident Summary
Active as of:
Severity:
Category:
InformationThere was an issue retrieving the traffic information for this location. Please try a different location or try again shortly.
Advertisements